sensor_id;sensor_type;location;lat;lon;timestamp;P1;durP1;ratioP1;P2;durP2;ratioP2
19049;SDS011;9657;45.940;12.840;2023-07-31T00:01:59;22.02;;;9.68;;
19049;SDS011;9657;45.940;12.840;2023-07-31T00:04:26;20.23;;;9.45;;
19049;SDS011;9657;45.940;12.840;2023-07-31T00:06:53;19.73;;;9.18;;
19049;SDS011;9657;45.940;12.840;2023-07-31T00:09:20;17.23;;;8.77;;
19049;SDS011;9657;45.940;12.840;2023-07-31T00:11:47;20.35;;;8.48;;
19049;SDS011;9657;45.940;12.840;2023-07-31T00:14:16;20.65;;;8.50;;
19049;SDS011;9657;45.940;12.840;2023-07-31T00:16:43;17.90;;;8.20;;
19049;SDS011;9657;45.940;12.840;2023-07-31T00:19:10;18.63;;;8.50;;
19049;SDS011;9657;45.940;12.840;2023-07-31T00:21:37;19.98;;;7.95;;
19049;SDS011;9657;45.940;12.840;2023-07-31T00:24:04;16.20;;;6.50;;
19049;SDS011;9657;45.940;12.840;2023-07-31T00:26:31;15.02;;;6.88;;
19049;SDS011;9657;45.940;12.840;2023-07-31T00:28:58;12.07;;;6.70;;
19049;SDS011;9657;45.940;12.840;2023-07-31T00:31:26;13.82;;;6.78;;
19049;SDS011;9657;45.940;12.840;2023-07-31T00:33:53;13.77;;;6.45;;
19049;SDS011;9657;45.940;12.840;2023-07-31T00:36:20;12.60;;;6.03;;
19049;SDS011;9657;45.940;12.840;2023-07-31T00:38:47;12.65;;;5.72;;
19049;SDS011;9657;45.940;12.840;2023-07-31T00:41:15;11.77;;;6.20;;
19049;SDS011;9657;45.940;12.840;2023-07-31T00:43:42;14.45;;;6.35;;
19049;SDS011;9657;45.940;12.840;2023-07-31T00:46:09;12.63;;;5.38;;
19049;SDS011;9657;45.940;12.840;2023-07-31T00:48:38;11.43;;;5.00;;
19049;SDS011;9657;45.940;12.840;2023-07-31T00:51:06;10.88;;;5.47;;
19049;SDS011;9657;45.940;12.840;2023-07-31T00:53:34;9.82;;;4.60;;
19049;SDS011;9657;45.940;12.840;2023-07-31T00:56:02;10.48;;;5.13;;
19049;SDS011;9657;45.940;12.840;2023-07-31T00:58:30;11.32;;;5.00;;
19049;SDS011;9657;45.940;12.840;2023-07-31T01:03:33;7.53;;;4.00;;
19049;SDS011;9657;45.940;12.840;2023-07-31T01:06:04;7.60;;;3.80;;
19049;SDS011;9657;45.940;12.840;2023-07-31T01:08:40;7.70;;;4.10;;
19049;SDS011;9657;45.940;12.840;2023-07-31T01:11:13;7.55;;;4.10;;
19049;SDS011;9657;45.940;12.840;2023-07-31T01:13:44;10.55;;;4.10;;
19049;SDS011;9657;45.940;12.840;2023-07-31T01:16:12;8.35;;;4.25;;
19049;SDS011;9657;45.940;12.840;2023-07-31T01:18:39;6.65;;;3.70;;
19049;SDS011;9657;45.940;12.840;2023-07-31T01:21:11;5.95;;;3.08;;
19049;SDS011;9657;45.940;12.840;2023-07-31T01:23:51;6.13;;;3.50;;
19049;SDS011;9657;45.940;12.840;2023-07-31T01:26:34;6.00;;;3.50;;
19049;SDS011;9657;45.940;12.840;2023-07-31T01:29:07;7.57;;;3.25;;
19049;SDS011;9657;45.940;12.840;2023-07-31T01:31:38;4.88;;;3.35;;
19049;SDS011;9657;45.940;12.840;2023-07-31T01:34:08;5.80;;;2.83;;
19049;SDS011;9657;45.940;12.840;2023-07-31T01:36:36;4.57;;;2.63;;
19049;SDS011;9657;45.940;12.840;2023-07-31T01:39:03;4.55;;;2.65;;
19049;SDS011;9657;45.940;12.840;2023-07-31T01:41:30;5.68;;;2.90;;
19049;SDS011;9657;45.940;12.840;2023-07-31T01:43:59;5.10;;;2.88;;
19049;SDS011;9657;45.940;12.840;2023-07-31T01:46:26;3.08;;;2.20;;
19049;SDS011;9657;45.940;12.840;2023-07-31T01:48:53;5.53;;;2.72;;
19049;SDS011;9657;45.940;12.840;2023-07-31T01:51:20;4.60;;;2.28;;
19049;SDS011;9657;45.940;12.840;2023-07-31T01:53:47;5.20;;;3.05;;
19049;SDS011;9657;45.940;12.840;2023-07-31T01:56:14;4.57;;;2.60;;
19049;SDS011;9657;45.940;12.840;2023-07-31T01:58:41;4.45;;;2.25;;
19049;SDS011;9657;45.940;12.840;2023-07-31T02:01:09;3.33;;;2.38;;
19049;SDS011;9657;45.940;12.840;2023-07-31T02:03:36;4.25;;;2.60;;
19049;SDS011;9657;45.940;12.840;2023-07-31T02:06:03;4.03;;;2.20;;
19049;SDS011;9657;45.940;12.840;2023-07-31T02:08:30;3.13;;;2.03;;
19049;SDS011;9657;45.940;12.840;2023-07-31T02:10:57;3.28;;;2.20;;
19049;SDS011;9657;45.940;12.840;2023-07-31T02:13:24;3.78;;;2.55;;
19049;SDS011;9657;45.940;12.840;2023-07-31T02:15:51;2.53;;;1.80;;
19049;SDS011;9657;45.940;12.840;2023-07-31T02:18:20;2.63;;;2.03;;
19049;SDS011;9657;45.940;12.840;2023-07-31T02:20:48;4.13;;;2.10;;
19049;SDS011;9657;45.940;12.840;2023-07-31T02:23:16;2.53;;;1.80;;
19049;SDS011;9657;45.940;12.840;2023-07-31T02:25:43;3.83;;;1.98;;
19049;SDS011;9657;45.940;12.840;2023-07-31T02:28:11;3.05;;;2.13;;
19049;SDS011;9657;45.940;12.840;2023-07-31T02:30:38;4.80;;;2.15;;
19049;SDS011;9657;45.940;12.840;2023-07-31T02:33:05;2.85;;;1.98;;
19049;SDS011;9657;45.940;12.840;2023-07-31T02:35:33;3.88;;;2.00;;
19049;SDS011;9657;45.940;12.840;2023-07-31T02:38:00;2.47;;;1.70;;
19049;SDS011;9657;45.940;12.840;2023-07-31T02:40:27;2.42;;;1.65;;
19049;SDS011;9657;45.940;12.840;2023-07-31T02:42:54;3.92;;;1.80;;
19049;SDS011;9657;45.940;12.840;2023-07-31T02:45:21;3.70;;;2.03;;
19049;SDS011;9657;45.940;12.840;2023-07-31T02:47:48;3.30;;;1.90;;
19049;SDS011;9657;45.940;12.840;2023-07-31T02:50:15;2.97;;;1.88;;
19049;SDS011;9657;45.940;12.840;2023-07-31T02:52:44;2.70;;;1.80;;
19049;SDS011;9657;45.940;12.840;2023-07-31T02:55:11;2.35;;;1.40;;
19049;SDS011;9657;45.940;12.840;2023-07-31T02:57:38;2.88;;;1.73;;
19049;SDS011;9657;45.940;12.840;2023-07-31T03:00:06;2.90;;;1.70;;
19049;SDS011;9657;45.940;12.840;2023-07-31T03:02:34;2.20;;;1.75;;
19049;SDS011;9657;45.940;12.840;2023-07-31T03:05:01;3.10;;;1.80;;
19049;SDS011;9657;45.940;12.840;2023-07-31T03:07:28;2.20;;;1.90;;
19049;SDS011;9657;45.940;12.840;2023-07-31T03:09:57;2.40;;;1.65;;
19049;SDS011;9657;45.940;12.840;2023-07-31T03:12:24;3.00;;;2.10;;
19049;SDS011;9657;45.940;12.840;2023-07-31T03:14:51;2.08;;;1.55;;
19049;SDS011;9657;45.940;12.840;2023-07-31T03:17:18;2.47;;;1.58;;
19049;SDS011;9657;45.940;12.840;2023-07-31T03:19:45;2.30;;;1.75;;
19049;SDS011;9657;45.940;12.840;2023-07-31T03:22:12;2.38;;;1.73;;
19049;SDS011;9657;45.940;12.840;2023-07-31T03:24:39;1.60;;;1.33;;
19049;SDS011;9657;45.940;12.840;2023-07-31T03:27:07;2.08;;;1.58;;
19049;SDS011;9657;45.940;12.840;2023-07-31T03:29:34;2.97;;;1.60;;
19049;SDS011;9657;45.940;12.840;2023-07-31T03:32:01;3.00;;;2.00;;
19049;SDS011;9657;45.940;12.840;2023-07-31T03:34:29;1.50;;;1.40;;
19049;SDS011;9657;45.940;12.840;2023-07-31T03:36:57;2.80;;;1.90;;
19049;SDS011;9657;45.940;12.840;2023-07-31T03:39:24;1.30;;;1.20;;
19049;SDS011;9657;45.940;12.840;2023-07-31T03:41:51;2.85;;;1.58;;
19049;SDS011;9657;45.940;12.840;2023-07-31T03:44:19;1.63;;;1.42;;
19049;SDS011;9657;45.940;12.840;2023-07-31T03:46:46;2.33;;;1.75;;
19049;SDS011;9657;45.940;12.840;2023-07-31T03:49:16;2.22;;;1.83;;
19049;SDS011;9657;45.940;12.840;2023-07-31T03:51:43;2.85;;;1.60;;
19049;SDS011;9657;45.940;12.840;2023-07-31T03:54:10;2.60;;;1.42;;
19049;SDS011;9657;45.940;12.840;2023-07-31T03:56:38;2.28;;;1.70;;
19049;SDS011;9657;45.940;12.840;2023-07-31T03:59:05;2.70;;;1.60;;
19049;SDS011;9657;45.940;12.840;2023-07-31T04:01:33;2.10;;;1.80;;
19049;SDS011;9657;45.940;12.840;2023-07-31T04:04:00;1.95;;;1.58;;
19049;SDS011;9657;45.940;12.840;2023-07-31T04:06:27;4.05;;;1.50;;
19049;SDS011;9657;45.940;12.840;2023-07-31T04:08:54;2.17;;;1.33;;
19049;SDS011;9657;45.940;12.840;2023-07-31T04:11:21;1.95;;;1.75;;
19049;SDS011;9657;45.940;12.840;2023-07-31T04:13:48;1.80;;;1.52;;
19049;SDS011;9657;45.940;12.840;2023-07-31T04:16:15;1.42;;;1.20;;
19049;SDS011;9657;45.940;12.840;2023-07-31T04:18:44;2.22;;;1.50;;
19049;SDS011;9657;45.940;12.840;2023-07-31T04:21:11;1.90;;;1.55;;
19049;SDS011;9657;45.940;12.840;2023-07-31T04:23:38;2.58;;;1.83;;
19049;SDS011;9657;45.940;12.840;2023-07-31T04:26:05;1.70;;;1.50;;
19049;SDS011;9657;45.940;12.840;2023-07-31T04:28:32;1.77;;;1.40;;
19049;SDS011;9657;45.940;12.840;2023-07-31T04:30:59;1.98;;;1.55;;
19049;SDS011;9657;45.940;12.840;2023-07-31T04:33:26;2.00;;;1.65;;
19049;SDS011;9657;45.940;12.840;2023-07-31T04:35:54;2.47;;;1.73;;
19049;SDS011;9657;45.940;12.840;2023-07-31T04:38:21;2.53;;;1.45;;
19049;SDS011;9657;45.940;12.840;2023-07-31T04:40:48;2.95;;;1.83;;
19049;SDS011;9657;45.940;12.840;2023-07-31T04:43:16;1.58;;;1.48;;
19049;SDS011;9657;45.940;12.840;2023-07-31T04:45:45;2.20;;;1.88;;
19049;SDS011;9657;45.940;12.840;2023-07-31T04:48:13;2.60;;;1.40;;
19049;SDS011;9657;45.940;12.840;2023-07-31T04:50:40;2.85;;;1.70;;
19049;SDS011;9657;45.940;12.840;2023-07-31T04:53:09;4.38;;;1.65;;
19049;SDS011;9657;45.940;12.840;2023-07-31T04:55:36;3.35;;;2.10;;
19049;SDS011;9657;45.940;12.840;2023-07-31T04:58:03;2.85;;;1.77;;
19049;SDS011;9657;45.940;12.840;2023-07-31T05:00:30;1.88;;;1.40;;
19049;SDS011;9657;45.940;12.840;2023-07-31T05:02:57;2.28;;;1.60;;
19049;SDS011;9657;45.940;12.840;2023-07-31T05:05:24;3.22;;;1.90;;
19049;SDS011;9657;45.940;12.840;2023-07-31T05:07:51;1.55;;;1.45;;
19049;SDS011;9657;45.940;12.840;2023-07-31T05:10:19;4.78;;;1.95;;
19049;SDS011;9657;45.940;12.840;2023-07-31T05:12:46;2.90;;;1.88;;
19049;SDS011;9657;45.940;12.840;2023-07-31T05:15:13;3.08;;;1.90;;
19049;SDS011;9657;45.940;12.840;2023-07-31T05:17:40;2.50;;;1.95;;
19049;SDS011;9657;45.940;12.840;2023-07-31T05:20:07;1.58;;;1.38;;
19049;SDS011;9657;45.940;12.840;2023-07-31T05:22:35;2.58;;;1.70;;
19049;SDS011;9657;45.940;12.840;2023-07-31T05:25:02;2.13;;;1.60;;
19049;SDS011;9657;45.940;12.840;2023-07-31T05:27:31;4.43;;;2.15;;
19049;SDS011;9657;45.940;12.840;2023-07-31T05:29:59;3.47;;;1.67;;
19049;SDS011;9657;45.940;12.840;2023-07-31T05:32:26;2.20;;;1.77;;
19049;SDS011;9657;45.940;12.840;2023-07-31T05:34:53;2.85;;;1.90;;
19049;SDS011;9657;45.940;12.840;2023-07-31T05:37:20;1.63;;;1.50;;
19049;SDS011;9657;45.940;12.840;2023-07-31T05:39:48;2.70;;;1.75;;
19049;SDS011;9657;45.940;12.840;2023-07-31T05:42:15;2.38;;;1.92;;
19049;SDS011;9657;45.940;12.840;2023-07-31T05:44:43;2.22;;;1.85;;
19049;SDS011;9657;45.940;12.840;2023-07-31T05:47:10;2.17;;;1.98;;
19049;SDS011;9657;45.940;12.840;2023-07-31T05:49:37;2.15;;;1.70;;
19049;SDS011;9657;45.940;12.840;2023-07-31T05:52:04;2.38;;;1.65;;
19049;SDS011;9657;45.940;12.840;2023-07-31T05:54:32;4.00;;;1.70;;
19049;SDS011;9657;45.940;12.840;2023-07-31T05:56:59;3.83;;;2.30;;
19049;SDS011;9657;45.940;12.840;2023-07-31T05:59:26;2.65;;;1.60;;
19049;SDS011;9657;45.940;12.840;2023-07-31T06:01:54;1.88;;;1.52;;
19049;SDS011;9657;45.940;12.840;2023-07-31T06:04:22;3.58;;;1.88;;
19049;SDS011;9657;45.940;12.840;2023-07-31T06:06:50;3.30;;;1.75;;
19049;SDS011;9657;45.940;12.840;2023-07-31T06:09:17;3.10;;;1.75;;
19049;SDS011;9657;45.940;12.840;2023-07-31T06:11:45;2.20;;;1.58;;
19049;SDS011;9657;45.940;12.840;2023-07-31T06:14:12;2.55;;;1.70;;
19049;SDS011;9657;45.940;12.840;2023-07-31T06:16:39;2.95;;;1.77;;
19049;SDS011;9657;45.940;12.840;2023-07-31T06:19:08;2.85;;;1.70;;
19049;SDS011;9657;45.940;12.840;2023-07-31T06:21:35;2.17;;;1.98;;
19049;SDS011;9657;45.940;12.840;2023-07-31T06:24:03;3.08;;;1.98;;
19049;SDS011;9657;45.940;12.840;2023-07-31T06:26:30;2.72;;;1.88;;
19049;SDS011;9657;45.940;12.840;2023-07-31T06:28:57;2.88;;;1.95;;
19049;SDS011;9657;45.940;12.840;2023-07-31T06:31:24;3.88;;;2.10;;
19049;SDS011;9657;45.940;12.840;2023-07-31T06:33:52;2.80;;;2.17;;
19049;SDS011;9657;45.940;12.840;2023-07-31T06:36:20;3.40;;;2.42;;
19049;SDS011;9657;45.940;12.840;2023-07-31T06:38:47;4.30;;;2.50;;
19049;SDS011;9657;45.940;12.840;2023-07-31T06:41:14;4.13;;;2.70;;
19049;SDS011;9657;45.940;12.840;2023-07-31T06:43:41;2.72;;;1.92;;
19049;SDS011;9657;45.940;12.840;2023-07-31T06:46:08;3.42;;;2.58;;
19049;SDS011;9657;45.940;12.840;2023-07-31T06:48:36;5.13;;;2.88;;
19049;SDS011;9657;45.940;12.840;2023-07-31T06:51:03;3.78;;;2.75;;
19049;SDS011;9657;45.940;12.840;2023-07-31T06:53:31;5.57;;;3.10;;
19049;SDS011;9657;45.940;12.840;2023-07-31T06:55:58;4.80;;;3.03;;
19049;SDS011;9657;45.940;12.840;2023-07-31T06:58:25;4.88;;;2.40;;
19049;SDS011;9657;45.940;12.840;2023-07-31T07:00:52;3.42;;;2.90;;
19049;SDS011;9657;45.940;12.840;2023-07-31T07:03:19;5.07;;;2.67;;
19049;SDS011;9657;45.940;12.840;2023-07-31T07:05:46;6.05;;;2.85;;
19049;SDS011;9657;45.940;12.840;2023-07-31T07:08:13;3.75;;;2.78;;
19049;SDS011;9657;45.940;12.840;2023-07-31T07:10:43;3.55;;;2.58;;
19049;SDS011;9657;45.940;12.840;2023-07-31T07:13:12;3.25;;;2.78;;
19049;SDS011;9657;45.940;12.840;2023-07-31T07:15:39;4.20;;;3.00;;
19049;SDS011;9657;45.940;12.840;2023-07-31T07:18:06;3.20;;;2.38;;
19049;SDS011;9657;45.940;12.840;2023-07-31T07:20:35;3.00;;;2.45;;
19049;SDS011;9657;45.940;12.840;2023-07-31T07:23:02;3.25;;;2.67;;
19049;SDS011;9657;45.940;12.840;2023-07-31T07:25:29;3.22;;;2.40;;
19049;SDS011;9657;45.940;12.840;2023-07-31T07:27:58;3.67;;;2.47;;
19049;SDS011;9657;45.940;12.840;2023-07-31T07:30:25;2.20;;;1.98;;
19049;SDS011;9657;45.940;12.840;2023-07-31T07:32:52;2.60;;;2.28;;
19049;SDS011;9657;45.940;12.840;2023-07-31T07:35:19;5.40;;;2.63;;
19049;SDS011;9657;45.940;12.840;2023-07-31T07:37:48;2.25;;;2.05;;
19049;SDS011;9657;45.940;12.840;2023-07-31T07:40:16;4.22;;;2.58;;
19049;SDS011;9657;45.940;12.840;2023-07-31T07:42:43;3.88;;;2.40;;
19049;SDS011;9657;45.940;12.840;2023-07-31T07:45:12;2.75;;;2.13;;
19049;SDS011;9657;45.940;12.840;2023-07-31T07:47:40;2.75;;;2.15;;
19049;SDS011;9657;45.940;12.840;2023-07-31T07:50:07;3.35;;;1.85;;
19049;SDS011;9657;45.940;12.840;2023-07-31T07:52:35;4.10;;;2.60;;
19049;SDS011;9657;45.940;12.840;2023-07-31T07:55:02;3.63;;;1.83;;
19049;SDS011;9657;45.940;12.840;2023-07-31T07:57:30;2.65;;;1.85;;
19049;SDS011;9657;45.940;12.840;2023-07-31T07:59:57;3.45;;;2.40;;
19049;SDS011;9657;45.940;12.840;2023-07-31T08:02:25;2.88;;;2.13;;
19049;SDS011;9657;45.940;12.840;2023-07-31T08:04:52;2.38;;;2.03;;
19049;SDS011;9657;45.940;12.840;2023-07-31T08:07:19;2.03;;;1.75;;
19049;SDS011;9657;45.940;12.840;2023-07-31T08:09:47;2.75;;;1.80;;
19049;SDS011;9657;45.940;12.840;2023-07-31T08:12:14;3.75;;;2.25;;
19049;SDS011;9657;45.940;12.840;2023-07-31T08:14:41;2.97;;;1.75;;
19049;SDS011;9657;45.940;12.840;2023-07-31T08:17:08;2.53;;;2.00;;
19049;SDS011;9657;45.940;12.840;2023-07-31T08:19:36;2.45;;;1.80;;
19049;SDS011;9657;45.940;12.840;2023-07-31T08:22:03;2.25;;;1.50;;
19049;SDS011;9657;45.940;12.840;2023-07-31T08:24:30;2.20;;;1.70;;
19049;SDS011;9657;45.940;12.840;2023-07-31T08:26:58;2.30;;;1.90;;
19049;SDS011;9657;45.940;12.840;2023-07-31T08:29:25;2.17;;;1.88;;
19049;SDS011;9657;45.940;12.840;2023-07-31T08:31:52;2.92;;;2.05;;
19049;SDS011;9657;45.940;12.840;2023-07-31T08:34:19;3.10;;;1.85;;
19049;SDS011;9657;45.940;12.840;2023-07-31T08:36:47;3.28;;;1.90;;
19049;SDS011;9657;45.940;12.840;2023-07-31T08:39:14;2.75;;;1.98;;
19049;SDS011;9657;45.940;12.840;2023-07-31T08:41:42;1.88;;;1.70;;
19049;SDS011;9657;45.940;12.840;2023-07-31T08:44:09;2.65;;;1.50;;
19049;SDS011;9657;45.940;12.840;2023-07-31T08:46:38;2.17;;;1.92;;
19049;SDS011;9657;45.940;12.840;2023-07-31T08:49:06;3.50;;;1.98;;
19049;SDS011;9657;45.940;12.840;2023-07-31T08:51:34;2.40;;;1.65;;
19049;SDS011;9657;45.940;12.840;2023-07-31T08:54:04;2.47;;;2.28;;
19049;SDS011;9657;45.940;12.840;2023-07-31T08:56:31;3.22;;;2.08;;
19049;SDS011;9657;45.940;12.840;2023-07-31T08:58:59;3.92;;;2.35;;
19049;SDS011;9657;45.940;12.840;2023-07-31T09:01:30;3.92;;;2.58;;
19049;SDS011;9657;45.940;12.840;2023-07-31T09:04:00;3.42;;;2.60;;
19049;SDS011;9657;45.940;12.840;2023-07-31T09:06:29;3.97;;;2.78;;
19049;SDS011;9657;45.940;12.840;2023-07-31T09:08:57;3.55;;;3.22;;
19049;SDS011;9657;45.940;12.840;2023-07-31T09:11:25;3.72;;;3.15;;
19049;SDS011;9657;45.940;12.840;2023-07-31T09:13:54;4.57;;;3.13;;
19049;SDS011;9657;45.940;12.840;2023-07-31T09:16:27;3.90;;;2.95;;
19049;SDS011;9657;45.940;12.840;2023-07-31T09:18:57;4.50;;;2.78;;
19049;SDS011;9657;45.940;12.840;2023-07-31T09:21:26;4.10;;;3.08;;
19049;SDS011;9657;45.940;12.840;2023-07-31T09:23:54;3.88;;;3.00;;
19049;SDS011;9657;45.940;12.840;2023-07-31T09:26:32;4.18;;;2.97;;
19049;SDS011;9657;45.940;12.840;2023-07-31T09:29:00;5.68;;;3.28;;
19049;SDS011;9657;45.940;12.840;2023-07-31T09:31:33;5.30;;;3.08;;
19049;SDS011;9657;45.940;12.840;2023-07-31T09:34:05;5.28;;;3.20;;
19049;SDS011;9657;45.940;12.840;2023-07-31T09:36:32;5.53;;;3.00;;
19049;SDS011;9657;45.940;12.840;2023-07-31T09:39:05;8.13;;;3.83;;
19049;SDS011;9657;45.940;12.840;2023-07-31T09:41:37;5.55;;;3.78;;
19049;SDS011;9657;45.940;12.840;2023-07-31T09:44:05;8.48;;;4.32;;
19049;SDS011;9657;45.940;12.840;2023-07-31T09:46:34;7.72;;;4.13;;
19049;SDS011;9657;45.940;12.840;2023-07-31T09:49:03;6.75;;;4.47;;
19049;SDS011;9657;45.940;12.840;2023-07-31T09:51:32;7.35;;;4.30;;
19049;SDS011;9657;45.940;12.840;2023-07-31T09:54:03;9.50;;;4.43;;
19049;SDS011;9657;45.940;12.840;2023-07-31T09:56:34;9.27;;;4.40;;
19049;SDS011;9657;45.940;12.840;2023-07-31T09:59:04;7.90;;;4.20;;
19049;SDS011;9657;45.940;12.840;2023-07-31T10:01:32;10.55;;;4.13;;
19049;SDS011;9657;45.940;12.840;2023-07-31T10:03:59;9.75;;;4.18;;
19049;SDS011;9657;45.940;12.840;2023-07-31T10:06:28;8.20;;;3.83;;
19049;SDS011;9657;45.940;12.840;2023-07-31T10:08:55;12.68;;;4.35;;
19049;SDS011;9657;45.940;12.840;2023-07-31T10:11:23;9.30;;;4.00;;
19049;SDS011;9657;45.940;12.840;2023-07-31T10:13:55;9.68;;;4.00;;
19049;SDS011;9657;45.940;12.840;2023-07-31T10:16:22;9.70;;;4.38;;
19049;SDS011;9657;45.940;12.840;2023-07-31T10:18:50;9.80;;;4.22;;
19049;SDS011;9657;45.940;12.840;2023-07-31T10:21:18;10.43;;;4.13;;
19049;SDS011;9657;45.940;12.840;2023-07-31T10:23:45;8.80;;;3.90;;
19049;SDS011;9657;45.940;12.840;2023-07-31T10:26:14;7.85;;;3.85;;
19049;SDS011;9657;45.940;12.840;2023-07-31T10:28:43;5.78;;;3.38;;
19049;SDS011;9657;45.940;12.840;2023-07-31T10:31:14;7.40;;;3.50;;
19049;SDS011;9657;45.940;12.840;2023-07-31T10:33:43;9.90;;;3.97;;
19049;SDS011;9657;45.940;12.840;2023-07-31T10:36:13;6.70;;;3.45;;
19049;SDS011;9657;45.940;12.840;2023-07-31T10:38:41;5.57;;;3.45;;
19049;SDS011;9657;45.940;12.840;2023-07-31T10:41:09;6.70;;;3.35;;
19049;SDS011;9657;45.940;12.840;2023-07-31T10:43:36;7.55;;;3.28;;
19049;SDS011;9657;45.940;12.840;2023-07-31T10:46:06;4.93;;;3.17;;
19049;SDS011;9657;45.940;12.840;2023-07-31T10:48:42;6.50;;;3.20;;
19049;SDS011;9657;45.940;12.840;2023-07-31T10:51:09;6.85;;;3.03;;
19049;SDS011;9657;45.940;12.840;2023-07-31T10:53:38;8.40;;;3.15;;
19049;SDS011;9657;45.940;12.840;2023-07-31T10:56:07;5.50;;;2.95;;
19049;SDS011;9657;45.940;12.840;2023-07-31T10:58:37;4.50;;;2.85;;
19049;SDS011;9657;45.940;12.840;2023-07-31T11:01:05;4.40;;;2.63;;
19049;SDS011;9657;45.940;12.840;2023-07-31T11:03:43;5.18;;;2.70;;
19049;SDS011;9657;45.940;12.840;2023-07-31T11:06:12;4.97;;;2.65;;
19049;SDS011;9657;45.940;12.840;2023-07-31T11:08:43;5.00;;;3.00;;
19049;SDS011;9657;45.940;12.840;2023-07-31T11:11:11;3.97;;;2.63;;
19049;SDS011;9657;45.940;12.840;2023-07-31T11:13:40;3.53;;;2.20;;
19049;SDS011;9657;45.940;12.840;2023-07-31T11:16:09;3.97;;;2.28;;
19049;SDS011;9657;45.940;12.840;2023-07-31T11:18:38;3.05;;;2.17;;
19049;SDS011;9657;45.940;12.840;2023-07-31T11:21:11;3.25;;;2.13;;
19049;SDS011;9657;45.940;12.840;2023-07-31T11:23:38;3.63;;;2.55;;
19049;SDS011;9657;45.940;12.840;2023-07-31T11:26:05;4.07;;;2.53;;
19049;SDS011;9657;45.940;12.840;2023-07-31T11:28:33;5.05;;;2.30;;
19049;SDS011;9657;45.940;12.840;2023-07-31T11:31:01;2.90;;;2.17;;
19049;SDS011;9657;45.940;12.840;2023-07-31T11:33:29;3.10;;;2.42;;
19049;SDS011;9657;45.940;12.840;2023-07-31T11:35:56;3.58;;;2.60;;
19049;SDS011;9657;45.940;12.840;2023-07-31T11:38:25;3.15;;;2.10;;
19049;SDS011;9657;45.940;12.840;2023-07-31T11:40:54;3.67;;;2.17;;
19049;SDS011;9657;45.940;12.840;2023-07-31T11:43:22;3.20;;;2.15;;
19049;SDS011;9657;45.940;12.840;2023-07-31T11:45:50;3.70;;;2.03;;
19049;SDS011;9657;45.940;12.840;2023-07-31T11:48:18;3.15;;;1.90;;
19049;SDS011;9657;45.940;12.840;2023-07-31T11:50:47;3.15;;;1.90;;
19049;SDS011;9657;45.940;12.840;2023-07-31T11:53:16;3.40;;;1.90;;
19049;SDS011;9657;45.940;12.840;2023-07-31T11:55:47;2.88;;;2.33;;
19049;SDS011;9657;45.940;12.840;2023-07-31T11:58:15;2.30;;;2.05;;
19049;SDS011;9657;45.940;12.840;2023-07-31T12:00:43;2.28;;;2.08;;
19049;SDS011;9657;45.940;12.840;2023-07-31T12:03:11;2.83;;;2.17;;
19049;SDS011;9657;45.940;12.840;2023-07-31T12:05:38;2.28;;;1.90;;
19049;SDS011;9657;45.940;12.840;2023-07-31T12:08:08;2.20;;;1.90;;
19049;SDS011;9657;45.940;12.840;2023-07-31T12:10:37;3.35;;;1.90;;
19049;SDS011;9657;45.940;12.840;2023-07-31T12:13:07;2.00;;;1.77;;
19049;SDS011;9657;45.940;12.840;2023-07-31T12:15:38;3.97;;;2.03;;
19049;SDS011;9657;45.940;12.840;2023-07-31T12:18:07;2.40;;;2.00;;
19049;SDS011;9657;45.940;12.840;2023-07-31T12:20:39;2.13;;;1.92;;
19049;SDS011;9657;45.940;12.840;2023-07-31T12:23:07;2.47;;;1.90;;
19049;SDS011;9657;45.940;12.840;2023-07-31T12:25:40;2.63;;;1.83;;
19049;SDS011;9657;45.940;12.840;2023-07-31T12:28:09;1.83;;;1.70;;
19049;SDS011;9657;45.940;12.840;2023-07-31T12:30:38;2.50;;;2.20;;
19049;SDS011;9657;45.940;12.840;2023-07-31T12:33:06;2.75;;;1.80;;
19049;SDS011;9657;45.940;12.840;2023-07-31T12:35:41;2.40;;;2.05;;
19049;SDS011;9657;45.940;12.840;2023-07-31T12:38:11;2.10;;;1.90;;
19049;SDS011;9657;45.940;12.840;2023-07-31T12:40:39;2.45;;;2.03;;
19049;SDS011;9657;45.940;12.840;2023-07-31T12:43:06;2.20;;;2.00;;
19049;SDS011;9657;45.940;12.840;2023-07-31T12:45:35;1.77;;;1.67;;
19049;SDS011;9657;45.940;12.840;2023-07-31T12:48:02;2.20;;;2.00;;
19049;SDS011;9657;45.940;12.840;2023-07-31T12:50:29;1.60;;;1.50;;
19049;SDS011;9657;45.940;12.840;2023-07-31T12:52:56;1.88;;;1.70;;
19049;SDS011;9657;45.940;12.840;2023-07-31T12:55:24;1.70;;;1.60;;
19049;SDS011;9657;45.940;12.840;2023-07-31T12:57:51;1.90;;;1.65;;
19049;SDS011;9657;45.940;12.840;2023-07-31T13:00:19;2.28;;;1.50;;
19049;SDS011;9657;45.940;12.840;2023-07-31T13:02:46;2.28;;;2.08;;
19049;SDS011;9657;45.940;12.840;2023-07-31T13:05:14;2.30;;;1.48;;
19049;SDS011;9657;45.940;12.840;2023-07-31T13:07:41;1.92;;;1.80;;
19049;SDS011;9657;45.940;12.840;2023-07-31T13:10:08;2.17;;;1.98;;
19049;SDS011;9657;45.940;12.840;2023-07-31T13:12:35;1.90;;;1.75;;
19049;SDS011;9657;45.940;12.840;2023-07-31T13:15:03;1.73;;;1.50;;
19049;SDS011;9657;45.940;12.840;2023-07-31T13:17:32;1.63;;;1.42;;
19049;SDS011;9657;45.940;12.840;2023-07-31T13:19:59;1.45;;;1.35;;
19049;SDS011;9657;45.940;12.840;2023-07-31T13:22:26;1.70;;;1.60;;
19049;SDS011;9657;45.940;12.840;2023-07-31T13:24:53;1.70;;;1.50;;
19049;SDS011;9657;45.940;12.840;2023-07-31T13:27:20;2.08;;;1.60;;
19049;SDS011;9657;45.940;12.840;2023-07-31T13:29:48;1.70;;;1.60;;
19049;SDS011;9657;45.940;12.840;2023-07-31T13:32:15;2.90;;;2.17;;
19049;SDS011;9657;45.940;12.840;2023-07-31T13:34:44;1.60;;;1.50;;
19049;SDS011;9657;45.940;12.840;2023-07-31T13:37:12;1.85;;;1.50;;
19049;SDS011;9657;45.940;12.840;2023-07-31T13:39:39;1.52;;;1.42;;
19049;SDS011;9657;45.940;12.840;2023-07-31T13:42:07;1.70;;;1.60;;
19049;SDS011;9657;45.940;12.840;2023-07-31T13:44:37;1.73;;;1.33;;
19049;SDS011;9657;45.940;12.840;2023-07-31T13:47:04;1.52;;;1.42;;
19049;SDS011;9657;45.940;12.840;2023-07-31T13:49:31;2.13;;;1.40;;
19049;SDS011;9657;45.940;12.840;2023-07-31T13:52:01;1.77;;;1.67;;
19049;SDS011;9657;45.940;12.840;2023-07-31T13:54:28;2.03;;;1.50;;
19049;SDS011;9657;45.940;12.840;2023-07-31T13:56:55;1.85;;;1.75;;
19049;SDS011;9657;45.940;12.840;2023-07-31T13:59:22;2.00;;;1.50;;
19049;SDS011;9657;45.940;12.840;2023-07-31T14:01:49;1.52;;;1.40;;
19049;SDS011;9657;45.940;12.840;2023-07-31T14:04:16;1.95;;;1.60;;
19049;SDS011;9657;45.940;12.840;2023-07-31T14:06:44;1.70;;;1.60;;
19049;SDS011;9657;45.940;12.840;2023-07-31T14:09:14;1.75;;;1.60;;
19049;SDS011;9657;45.940;12.840;2023-07-31T14:11:42;1.65;;;1.52;;
19049;SDS011;9657;45.940;12.840;2023-07-31T14:14:09;1.73;;;1.63;;
19049;SDS011;9657;45.940;12.840;2023-07-31T14:16:36;1.85;;;1.60;;
19049;SDS011;9657;45.940;12.840;2023-07-31T14:19:03;2.33;;;1.73;;
19049;SDS011;9657;45.940;12.840;2023-07-31T14:21:30;3.45;;;1.85;;
19049;SDS011;9657;45.940;12.840;2023-07-31T14:23:57;2.10;;;1.50;;
19049;SDS011;9657;45.940;12.840;2023-07-31T14:26:26;2.33;;;2.13;;
19049;SDS011;9657;45.940;12.840;2023-07-31T14:28:53;1.73;;;1.45;;
19049;SDS011;9657;45.940;12.840;2023-07-31T14:31:20;2.70;;;1.63;;
19049;SDS011;9657;45.940;12.840;2023-07-31T14:33:47;1.80;;;1.70;;
19049;SDS011;9657;45.940;12.840;2023-07-31T14:36:14;1.55;;;1.42;;
19049;SDS011;9657;45.940;12.840;2023-07-31T14:38:41;1.60;;;1.50;;
19049;SDS011;9657;45.940;12.840;2023-07-31T14:41:08;1.52;;;1.42;;
19049;SDS011;9657;45.940;12.840;2023-07-31T14:43:36;1.92;;;1.75;;
19049;SDS011;9657;45.940;12.840;2023-07-31T14:46:04;1.75;;;1.52;;
19049;SDS011;9657;45.940;12.840;2023-07-31T14:48:31;1.42;;;1.30;;
19049;SDS011;9657;45.940;12.840;2023-07-31T14:50:58;1.50;;;1.40;;
19049;SDS011;9657;45.940;12.840;2023-07-31T14:53:26;1.67;;;1.55;;